Time;durP1;ratioP1;P1;durP2;ratioP2;P2;SDS_P1;SDS_P2;PMS_P1;PMS_P2;Temp;Humidity;BMP_temperature;BMP_pressure;BME280_temperature;BME280_humidity;BME280_pressure;Samples;Min_cycle;Max_cycle;Signal;HPM_P1;HPM_P2
2021/04/17 00:01:33;;;;;;;6.85;3.03;;;;;;;3.50;75.60;102402.41;6225185;28;20082;-71
2021/04/17 00:04:36;;;;;;;5.25;2.75;;;;;;;3.45;74.98;102406.69;6224678;28;20108;-71
2021/04/17 00:07:38;;;;;;;5.47;2.70;;;;;;;3.48;74.85;102398.91;6224966;28;20050;-71
2021/04/17 00:10:39;;;;;;;6.75;2.70;;;;;;;3.49;74.66;102398.06;6225235;28;20064;-71
2021/04/17 00:13:40;;;;;;;8.68;2.78;;;;;;;3.39;75.06;102399.75;6224214;28;20506;-71
2021/04/17 00:16:42;;;;;;;7.80;3.15;;;;;;;3.43;74.82;102390.25;6225200;28;20060;-71
2021/04/17 00:19:44;;;;;;;13.13;4.40;;;;;;;3.37;74.75;102405.84;6225272;28;20494;-70
2021/04/17 00:22:46;;;;;;;7.55;2.80;;;;;;;3.31;75.12;102393.66;6224627;28;20472;-71
2021/04/17 00:25:47;;;;;;;8.15;3.25;;;;;;;3.31;76.97;102397.13;6224086;28;20046;-71
2021/04/17 00:28:47;;;;;;;6.40;3.00;;;;;;;3.30;76.99;102400.59;6225099;28;20601;-71
2021/04/17 00:31:48;;;;;;;8.32;3.40;;;;;;;3.24;77.15;102391.94;6224582;28;20075;-70
2021/04/17 00:34:50;;;;;;;6.80;2.85;;;;;;;3.20;77.35;102400.56;6231876;28;20054;-71
2021/04/17 00:37:51;;;;;;;7.30;3.10;;;;;;;3.12;78.60;102402.25;6249196;28;20057;-71
2021/04/17 00:40:52;;;;;;;8.68;3.60;;;;;;;3.06;79.51;102395.31;6248736;28;20053;-71
2021/04/17 00:43:53;;;;;;;5.70;2.88;;;;;;;3.02;79.37;102388.38;6248262;28;20496;-71
2021/04/17 00:46:54;;;;;;;10.68;2.95;;;;;;;2.95;78.72;102384.91;6247982;28;20445;-70
2021/04/17 00:49:55;;;;;;;5.55;2.80;;;;;;;2.90;78.86;102381.38;6248572;28;20090;-71
2021/04/17 00:52:57;;;;;;;10.25;3.95;;;;;;;2.81;80.81;102391.72;6247972;28;20057;-70
2021/04/17 00:55:58;;;;;;;6.60;3.53;;;;;;;2.76;80.46;102375.25;6248789;28;20540;-70
2021/04/17 00:58:59;;;;;;;8.50;3.90;;;;;;;2.73;79.78;102381.31;6248525;28;20085;-71
2021/04/17 01:02:00;;;;;;;6.72;3.80;;;;;;;2.66;80.77;102376.94;6248555;28;20053;-71
2021/04/17 01:08:08;;;;;;;9.95;5.05;;;;;;;2.65;81.06;102379.53;6291493;22;20051;-72
2021/04/17 01:11:16;;;;;;;8.80;3.78;;;;;;;2.64;81.62;102385.59;6273028;28;20052;-72
2021/04/17 01:14:18;;;;;;;6.60;3.40;;;;;;;2.60;81.84;102383.84;6272571;28;20079;-73
2021/04/17 01:17:20;;;;;;;6.43;3.25;;;;;;;2.58;82.30;102399.38;6254260;28;20046;-72
2021/04/17 01:20:30;;;;;;;11.30;4.82;;;;;;;2.49;82.22;102397.59;6247852;28;20057;-72
2021/04/17 01:23:33;;;;;;;;;;;;;;;2.45;82.89;102395.88;6248249;28;20056;-72
2021/04/17 01:26:37;;;;;;;9.30;3.38;;;;;;;2.43;82.86;102399.28;6231649;28;19921;-73
2021/04/17 01:29:41;;;;;;;7.90;4.07;;;;;;;2.37;82.63;102396.66;6230537;28;20053;-73
2021/04/17 01:32:43;;;;;;;8.73;3.88;;;;;;;2.37;82.80;102396.66;6223511;28;20505;-73
2021/04/17 01:35:45;;;;;;;7.68;3.40;;;;;;;2.37;83.05;102388.88;6223206;28;20050;-72
2021/04/17 01:38:49;;;;;;;8.57;3.33;;;;;;;2.34;83.82;102392.31;6223122;28;20057;-72
2021/04/17 01:41:53;;;;;;;12.20;3.53;;;;;;;2.37;83.08;102394.94;6225794;28;20068;-72
2021/04/17 01:44:55;;;;;;;8.85;2.83;;;;;;;2.42;83.39;102382.00;6238819;28;20433;-72
2021/04/17 01:47:57;;;;;;;8.32;3.70;;;;;;;2.36;82.88;102390.56;6247516;28;20045;-72
2021/04/17 01:50:59;;;;;;;9.32;3.70;;;;;;;2.37;84.14;102391.47;6247324;28;20045;-72
2021/04/17 01:54:08;;;;;;;7.43;3.28;;;;;;;2.34;84.57;102381.94;6247073;28;20417;-73
2021/04/17 01:57:13;;;;;;;9.43;3.58;;;;;;;2.29;84.67;102389.69;6247246;28;20057;-72
2021/04/17 02:00:15;;;;;;;10.85;4.30;;;;;;;2.33;85.73;102385.38;6247263;28;20061;-72
2021/04/17 02:03:16;;;;;;;7.10;3.92;;;;;;;2.40;85.66;102378.50;6246739;28;20518;-72
2021/04/17 02:06:17;;;;;;;8.75;3.75;;;;;;;2.48;85.70;102372.50;6246970;28;20115;-74
2021/04/17 02:09:18;;;;;;;10.63;3.85;;;;;;;2.51;87.31;102375.13;6247070;28;20091;-73
2021/04/17 02:12:20;;;;;;;11.05;4.10;;;;;;;2.57;86.33;102376.03;6246896;28;20080;-74
2021/04/17 02:15:21;;;;;;;9.25;3.20;;;;;;;2.60;87.28;102373.47;6246687;28;20045;-74
2021/04/17 02:18:26;;;;;;;13.10;3.72;;;;;;;2.62;87.20;102370.00;6246922;28;20052;-74
2021/04/17 02:21:33;;;;;;;6.30;3.65;;;;;;;2.70;86.17;102381.28;6246755;28;20432;-74
2021/04/17 02:24:34;;;;;;;11.70;3.45;;;;;;;2.72;86.65;102368.31;6246466;28;20053;-74
2021/04/17 02:27:36;;;;;;;9.70;2.78;;;;;;;2.77;86.40;102374.38;6246743;28;20049;-72
2021/04/17 02:30:37;;;;;;;7.57;3.78;;;;;;;2.79;85.93;102363.16;6246528;28;20061;-72
2021/04/17 02:33:38;;;;;;;12.13;4.20;;;;;;;2.82;86.48;102366.63;6246584;28;20049;-72
2021/04/17 02:36:39;;;;;;;8.57;3.40;;;;;;;2.83;85.32;102358.88;6246862;28;20519;-72
2021/04/17 02:39:41;;;;;;;10.15;4.25;;;;;;;2.87;85.68;102355.44;6246567;28;20076;-72
2021/04/17 02:42:43;;;;;;;7.65;3.67;;;;;;;2.88;86.23;102351.09;6246600;28;20045;-72
2021/04/17 02:45:44;;;;;;;10.65;5.15;;;;;;;2.89;87.15;102347.63;6246044;28;20056;-72
2021/04/17 02:48:45;;;;;;;8.77;4.35;;;;;;;2.91;86.98;102341.59;6246565;28;20472;-73
2021/04/17 02:51:45;;;;;;;14.35;4.40;;;;;;;2.91;87.29;102339.00;6246046;28;20497;-73
2021/04/17 02:54:46;;;;;;;8.32;4.00;;;;;;;2.91;86.92;102340.72;6246228;28;20060;-74
2021/04/17 02:57:48;;;;;;;9.07;4.40;;;;;;;2.85;87.50;102338.97;6246351;28;20081;-73
2021/04/17 03:00:49;;;;;;;10.52;4.50;;;;;;;2.78;88.59;102334.63;6246560;28;20096;-73
2021/04/17 03:03:50;;;;;;;6.35;3.88;;;;;;;2.77;88.34;102340.66;6245946;28;20057;-73
2021/04/17 03:06:51;;;;;;;15.68;4.57;;;;;;;2.74;88.81;102333.72;6246081;28;20049;-72
2021/04/17 03:09:52;;;;;;;11.82;4.45;;;;;;;2.73;88.87;102337.19;6246394;28;20413;-73
2021/04/17 03:12:54;;;;;;;8.38;4.25;;;;;;;2.78;89.30;102332.88;6250355;28;20049;-73
2021/04/17 03:15:55;;;;;;;11.95;4.95;;;;;;;2.73;90.10;102333.72;6250884;28;20053;-73
2021/04/17 03:18:56;;;;;;;11.57;5.25;;;;;;;2.74;90.48;102328.53;6228186;28;20050;-73
2021/04/17 03:21:57;;;;;;;14.20;5.32;;;;;;;2.75;90.20;102329.41;6226510;28;20057;-73
2021/04/17 03:24:58;;;;;;;15.70;6.18;;;;;;;2.75;90.67;102324.22;6226006;28;20456;-73
2021/04/17 03:28:00;;;;;;;12.70;5.95;;;;;;;2.80;91.04;102319.91;6226133;28;20049;-73
2021/04/17 03:31:00;;;;;;;12.48;4.63;;;;;;;2.79;90.66;102311.25;6225994;28;20502;-73
2021/04/17 03:34:01;;;;;;;16.52;4.90;;;;;;;2.82;89.85;102312.09;6225905;28;20042;-73
2021/04/17 03:37:02;;;;;;;11.60;5.55;;;;;;;2.74;90.10;102306.91;6226021;28;20484;-73
2021/04/17 03:40:05;;;;;;;9.20;5.00;;;;;;;2.74;90.69;102301.72;6225676;28;20061;-73
2021/04/17 03:43:07;;;;;;;13.68;6.75;;;;;;;2.76;89.78;102303.44;6225651;28;20453;-73
2021/04/17 03:46:08;;;;;;;16.05;7.70;;;;;;;2.82;89.79;102297.44;6225531;28;20053;-73
2021/04/17 03:49:09;;;;;;;18.60;5.40;;;;;;;2.72;90.87;102306.88;6225787;28;20428;-73
2021/04/17 03:52:10;;;;;;;8.70;5.28;;;;;;;2.74;91.32;102306.91;6225564;28;20082;-72
2021/04/17 03:55:14;;;;;;;11.00;5.22;;;;;;;2.77;91.09;102306.91;6225400;28;20052;-74
2021/04/17 03:58:15;;;;;;;10.50;5.95;;;;;;;2.81;91.47;102313.84;6225560;28;20104;-71
2021/04/17 04:01:16;;;;;;;9.48;5.40;;;;;;;2.77;91.63;102307.78;6225603;28;20054;-71
2021/04/17 04:04:17;;;;;;;13.35;5.60;;;;;;;2.74;91.02;102307.78;6225251;28;20137;-71
2021/04/17 04:07:18;;;;;;;17.67;6.20;;;;;;;2.77;91.56;102314.69;6225239;28;20136;-71
2021/04/17 04:10:19;;;;;;;21.45;5.85;;;;;;;2.82;90.62;102310.41;6225106;28;20046;-71
2021/04/17 04:13:21;;;;;;;18.45;6.95;;;;;;;2.76;92.04;102318.16;6228327;28;20042;-71
2021/04/17 04:16:22;;;;;;;14.43;6.20;;;;;;;2.82;92.17;102320.78;6235354;28;20046;-73
2021/04/17 04:19:23;;;;;;;20.55;6.60;;;;;;;2.92;92.39;102313.91;6236023;28;20445;-71
2021/04/17 04:22:24;;;;;;;14.43;6.47;;;;;;;2.94;91.55;102318.22;6234735;28;20045;-71
2021/04/17 04:25:25;;;;;;;13.90;6.45;;;;;;;2.96;90.66;102324.31;6235868;28;20553;-71
2021/04/17 04:28:27;;;;;;;13.35;6.40;;;;;;;2.99;91.53;102323.44;6237093;28;20072;-71
2021/04/17 04:31:28;;;;;;;19.30;6.43;;;;;;;3.07;91.08;102319.13;6249254;28;20049;-71
2021/04/17 04:34:29;;;;;;;16.17;6.93;;;;;;;3.14;90.64;102317.44;6249037;28;20114;-71
2021/04/17 04:37:30;;;;;;;17.30;6.57;;;;;;;3.15;89.85;102326.97;6249096;28;20056;-71
2021/04/17 04:40:31;;;;;;;18.15;7.32;;;;;;;3.13;90.31;102326.06;6248840;28;20049;-71
2021/04/17 04:43:32;;;;;;;17.20;6.97;;;;;;;3.20;90.89;102327.84;6248729;28;20049;-71
2021/04/17 04:46:34;;;;;;;11.98;6.30;;;;;;;3.11;91.39;102325.22;6248705;28;20053;-72
2021/04/17 04:49:35;;;;;;;16.35;6.85;;;;;;;3.19;91.19;102334.75;6248866;28;20045;-72
2021/04/17 04:52:37;;;;;;;16.45;7.22;;;;;;;3.22;91.21;102332.16;6248719;28;20057;-71
2021/04/17 04:55:37;;;;;;;22.10;7.93;;;;;;;3.09;92.65;102342.50;6248595;28;20049;-71
2021/04/17 04:58:39;;;;;;;20.10;7.38;;;;;;;3.18;92.02;102335.63;6248588;28;20080;-71
2021/04/17 05:01:40;;;;;;;19.70;8.32;;;;;;;3.30;91.59;102330.44;6248537;28;20050;-71
2021/04/17 05:04:42;;;;;;;25.98;8.70;;;;;;;3.18;92.77;102334.72;6248412;28;20383;-71
2021/04/17 05:07:43;;;;;;;20.55;7.93;;;;;;;3.30;92.17;102329.59;6248101;28;20068;-73
2021/04/17 05:10:44;;;;;;;26.13;7.97;;;;;;;3.37;91.84;102328.75;6248310;28;20045;-71
2021/04/17 05:13:45;;;;;;;26.65;7.57;;;;;;;3.47;90.55;102327.88;6247957;28;20066;-72
2021/04/17 05:16:46;;;;;;;23.35;7.28;;;;;;;3.31;91.71;102321.78;6248145;28;20061;-73
2021/04/17 05:19:47;;;;;;;21.08;7.35;;;;;;;3.25;92.81;102337.38;6248036;28;20050;-73
2021/04/17 05:22:48;;;;;;;20.50;7.35;;;;;;;3.44;92.74;102334.81;6247886;28;20053;-73
2021/04/17 05:25:49;;;;;;;16.80;7.60;;;;;;;3.43;92.90;102335.69;6234794;28;20068;-73
2021/04/17 05:28:51;;;;;;;22.35;8.70;;;;;;;3.64;91.91;102334.84;6233980;28;20049;-73
2021/04/17 05:31:52;;;;;;;22.73;7.70;;;;;;;3.46;91.96;102336.56;6235601;28;20083;-73
2021/04/17 05:34:54;;;;;;;15.35;8.07;;;;;;;3.46;92.91;102333.09;6233528;28;20464;-73
2021/04/17 05:37:55;;;;;;;20.33;8.18;;;;;;;3.59;91.50;102328.75;6234573;28;20041;-73
2021/04/17 05:40:56;;;;;;;16.02;7.40;;;;;;;3.59;91.98;102328.75;6232754;28;20041;-73
2021/04/17 05:43:57;;;;;;;18.45;8.13;;;;;;;3.53;92.13;102321.81;6234467;28;20132;-71
2021/04/17 05:46:58;;;;;;;18.63;7.47;;;;;;;3.69;91.94;102333.97;6235026;28;20053;-73
2021/04/17 05:49:59;;;;;;;18.25;7.55;;;;;;;3.63;91.44;102326.16;6232500;28;20057;-73
2021/04/17 05:53:00;;;;;;;14.90;7.18;;;;;;;3.64;92.27;102330.50;6232153;28;20056;-73
2021/04/17 05:56:01;;;;;;;24.33;7.65;;;;;;;3.76;90.74;102320.09;6234719;28;20531;-73
2021/04/17 05:59:03;;;;;;;16.85;7.18;;;;;;;3.77;91.32;102320.97;6229864;28;20334;-74
2021/04/17 06:02:04;;;;;;;19.25;7.72;;;;;;;3.76;92.27;102330.50;6222714;28;20050;-73
2021/04/17 06:05:06;;;;;;;18.33;7.20;;;;;;;3.89;89.82;102320.09;6222400;28;20485;-74
2021/04/17 06:08:07;;;;;;;21.52;8.60;;;;;;;3.78;91.76;102328.78;6222305;28;20116;-73
2021/04/17 06:11:08;;;;;;;23.08;7.13;;;;;;;3.90;90.58;102322.69;6222520;28;20053;-74
2021/04/17 06:14:10;;;;;;;18.77;6.65;;;;;;;3.83;90.59;102304.53;6222138;28;20050;-73
2021/04/17 06:17:11;;;;;;;21.05;8.02;;;;;;;3.94;89.91;102314.03;6222498;28;20045;-72
2021/04/17 06:20:12;;;;;;;21.92;6.20;;;;;;;4.17;89.16;102308.78;6222270;28;20049;-74
2021/04/17 06:23:13;;;;;;;18.48;6.13;;;;;;;4.13;88.22;102314.88;6222433;28;20046;-73
2021/04/17 06:26:14;;;;;;;20.05;6.72;;;;;;;4.06;88.51;102313.16;6222135;28;20103;-73
2021/04/17 06:29:16;;;;;;;15.52;6.07;;;;;;;4.17;88.76;102313.13;6222158;28;20049;-73
2021/04/17 06:32:17;;;;;;;16.48;7.00;;;;;;;4.17;88.80;102316.59;6222226;28;20081;-72
2021/04/17 06:35:18;;;;;;;13.68;6.15;;;;;;;4.29;88.43;102307.91;6222137;28;20490;-74
2021/04/17 06:38:19;;;;;;;19.52;6.38;;;;;;;4.44;86.38;102312.22;6222336;28;20050;-72
2021/04/17 06:41:22;;;;;;;14.30;5.22;;;;;;;4.66;85.60;102310.41;6221975;28;20060;-72
2021/04/17 06:44:24;;;;;;;16.35;5.40;;;;;;;4.68;84.05;102303.44;6221934;28;20046;-72
2021/04/17 06:47:25;;;;;;;15.48;5.85;;;;;;;4.70;84.31;102304.31;6225790;28;20053;-72
2021/04/17 06:50:27;;;;;;;23.42;5.53;;;;;;;4.86;82.95;102299.91;6231753;28;20045;-72
2021/04/17 06:53:27;;;;;;;16.10;4.95;;;;;;;4.96;80.63;102293.81;6236687;28;20041;-72
2021/04/17 06:56:29;;;;;;;8.38;4.47;;;;;;;4.90;79.75;102294.66;6238210;28;20053;-72
2021/04/17 06:59:31;;;;;;;13.18;4.72;;;;;;;4.93;79.09;102291.19;6237065;28;20531;-72
2021/04/17 07:02:32;;;;;;;16.73;4.15;;;;;;;4.96;78.16;102291.19;6232945;28;20064;-72
2021/04/17 07:05:33;;;;;;;10.23;4.18;;;;;;;5.00;78.55;102288.56;6226167;28;20045;-73
2021/04/17 07:08:38;;;;;;;15.52;4.75;;;;;;;5.14;77.47;102291.09;6285359;23;20494;-75
2021/04/17 07:11:39;;;;;;;14.00;4.53;;;;;;;5.08;78.64;102286.75;6258391;28;20456;-72
2021/04/17 07:14:45;;;;;;;13.95;4.55;;;;;;;5.09;77.39;102287.66;6257556;28;20132;-71
2021/04/17 07:17:46;;;;;;;12.27;4.25;;;;;;;5.19;77.23;102281.50;6250875;28;20056;-71
2021/04/17 07:20:46;;;;;;;13.07;4.22;;;;;;;5.15;75.55;102276.31;6250963;28;20657;-71
2021/04/17 07:23:48;;;;;;;12.95;4.45;;;;;;;5.20;76.19;102275.41;6250488;28;20050;-71
2021/04/17 07:26:49;;;;;;;12.10;4.38;;;;;;;5.19;76.25;102285.84;6259955;28;20053;-71
2021/04/17 07:29:51;;;;;;;11.07;3.83;;;;;;;5.17;77.82;102285.84;6258859;28;20056;-71
2021/04/17 07:33:05;;;;;;;9.63;4.20;;;;;;;5.31;77.30;102281.44;6266605;28;20468;-71
2021/04/17 07:36:06;;;;;;;15.63;4.85;;;;;;;5.39;74.51;102286.56;6275228;28;20417;-72
2021/04/17 07:39:26;;;;;;;16.30;4.43;;;;;;;5.38;75.57;102286.59;6275355;28;20060;-70
2021/04/17 07:42:36;;;;;;;11.45;4.05;;;;;;;5.39;75.76;102286.56;6275273;28;20045;-72
2021/04/17 07:45:41;;;;;;;12.50;3.92;;;;;;;5.58;74.13;102277.72;6256777;28;20050;-73
2021/04/17 07:48:42;;;;;;;11.88;4.20;;;;;;;5.41;75.93;102276.16;6264656;28;20064;-70
2021/04/17 07:52:01;;;;;;;10.40;3.88;;;;;;;5.42;76.32;102278.72;6268386;28;20106;-72
2021/04/17 07:55:05;;;;;;;14.98;3.95;;;;;;;5.47;77.49;102276.09;6268251;28;20051;-70
2021/04/17 07:58:11;;;;;;;11.43;4.07;;;;;;;5.47;74.84;102281.31;6265647;28;20132;-70
2021/04/17 08:01:14;;;;;;;10.75;3.67;;;;;;;5.60;76.47;102270.75;6274741;28;20433;-70
2021/04/17 08:04:22;;;;;;;15.80;4.13;;;;;;;5.77;75.63;102270.63;6272644;28;20053;-71
2021/04/17 08:07:24;;;;;;;17.83;3.83;;;;;;;5.85;75.33;102276.63;6265265;28;20075;-70
2021/04/17 08:10:26;;;;;;;11.10;3.78;;;;;;;6.19;73.30;102265.91;6274255;28;20056;-71
2021/04/17 08:13:27;;;;;;;13.07;3.97;;;;;;;6.41;71.75;102263.06;6274282;28;20060;-71
2021/04/17 08:16:29;;;;;;;8.93;3.22;;;;;;;6.54;69.51;102259.38;6266200;28;20061;-71
2021/04/17 08:19:30;;;;;;;9.82;3.60;;;;;;;6.54;69.19;102264.63;6256558;28;20524;-71
2021/04/17 08:22:31;;;;;;;10.60;3.30;;;;;;;6.63;68.80;102263.63;6257502;28;20061;-70
2021/04/17 08:25:34;;;;;;;11.60;3.17;;;;;;;6.74;66.45;102252.19;6248588;28;20045;-72
2021/04/17 08:28:40;;;;;;;11.13;3.35;;;;;;;6.78;66.62;102251.25;6249077;28;20053;-72
2021/04/17 08:31:44;;;;;;;9.02;3.00;;;;;;;6.85;66.05;102250.28;6254819;28;20114;-74
2021/04/17 08:34:57;;;;;;;9.70;3.30;;;;;;;6.82;65.80;102245.09;6249005;28;20045;-72
2021/04/17 08:38:04;;;;;;;12.25;3.10;;;;;;;6.85;66.14;102231.13;6249071;28;20195;-70
2021/04/17 08:41:07;;;;;;;13.07;3.47;;;;;;;7.15;65.62;102231.56;6248952;28;20049;-71
2021/04/17 08:44:24;;;;;;;7.53;2.80;;;;;;;7.11;64.53;102229.00;6248466;28;20130;-72
2021/04/17 08:47:46;;;;;;;7.75;2.83;;;;;;;7.28;63.16;102217.44;6257034;28;20053;-71
2021/04/17 08:50:47;;;;;;;6.75;2.78;;;;;;;7.36;62.43;102226.03;6248993;28;20099;-71
2021/04/17 08:53:48;;;;;;;10.38;3.10;;;;;;;7.26;62.19;102227.03;6248352;28;20128;-71
2021/04/17 08:57:01;;;;;;;5.82;2.88;;;;;;;7.41;61.14;102218.94;6248693;28;20056;-72
2021/04/17 09:00:05;;;;;;;13.82;3.17;;;;;;;7.41;61.86;102218.94;6248453;28;20057;-71
2021/04/17 09:03:07;;;;;;;11.32;2.97;;;;;;;7.48;62.01;102220.56;6248350;28;20057;-71
2021/04/17 09:06:09;;;;;;;14.43;3.08;;;;;;;7.57;62.24;102217.78;6248185;28;20046;-71
2021/04/17 09:09:32;;;;;;;5.32;2.55;;;;;;;7.72;61.97;102208.84;6247503;28;20049;-71
2021/04/17 09:12:33;;;;;;;8.15;2.70;;;;;;;7.72;62.50;102207.94;6248272;28;20076;-71
2021/04/17 09:15:49;;;;;;;5.03;2.45;;;;;;;7.63;62.46;102209.84;6247867;28;20077;-72
2021/04/17 09:18:52;;;;;;;7.38;3.00;;;;;;;7.82;62.95;102205.16;6248025;28;20045;-72
2021/04/17 09:21:53;;;;;;;10.85;2.95;;;;;;;7.78;63.00;102197.38;6248319;28;20131;-73
2021/04/17 09:24:55;;;;;;;10.50;2.50;;;;;;;7.81;64.79;102200.81;6247548;28;20042;-72
2021/04/17 09:27:56;;;;;;;9.65;2.63;;;;;;;7.97;62.46;102198.75;6247770;28;20049;-72
2021/04/17 09:30:57;;;;;;;11.25;3.38;;;;;;;8.08;63.08;102207.28;6247819;28;20095;-72
2021/04/17 09:34:00;;;;;;;7.40;3.00;;;;;;;8.12;62.15;102197.59;6247552;28;20049;-72
2021/04/17 09:37:09;;;;;;;7.20;2.58;;;;;;;8.39;61.28;102193.56;6263570;28;20515;-72
2021/04/17 09:40:10;;;;;;;;;;;;;;;8.27;62.87;102189.44;6262848;28;20398;-72
2021/04/17 09:43:23;;;;;;;10.60;3.28;;;;;;;8.52;61.29;102189.81;6271057;28;20572;-73
2021/04/17 09:46:26;;;;;;;9.95;3.00;;;;;;;8.61;62.80;102188.75;6272163;28;20091;-72
2021/04/17 09:49:38;;;;;;;11.80;3.30;;;;;;;8.57;60.65;102176.59;6270991;28;20045;-72
2021/04/17 09:52:40;;;;;;;13.63;3.03;;;;;;;8.85;61.27;102179.47;6272017;28;20049;-72
2021/04/17 09:55:56;;;;;;;17.17;2.95;;;;;;;8.94;61.02;102183.63;6265728;28;20049;-72
2021/04/17 09:58:59;;;;;;;8.95;2.92;;;;;;;8.98;59.72;102188.75;6259439;28;20558;-72
2021/04/17 10:02:01;;;;;;;9.70;3.30;;;;;;;8.82;61.18;102187.41;6252259;28;20057;-72
2021/04/17 10:05:02;;;;;;;11.05;2.95;;;;;;;8.81;61.77;102178.69;6247195;28;20497;-72
2021/04/17 10:08:04;;;;;;;7.90;2.85;;;;;;;9.03;61.95;102175.53;6249926;28;20091;-72
2021/04/17 10:11:20;;;;;;;9.18;3.03;;;;;;;9.07;62.57;102170.19;6263081;28;20093;-72
2021/04/17 10:14:22;;;;;;;9.70;3.08;;;;;;;9.50;59.31;102163.88;6245394;28;20049;-72
2021/04/17 10:17:23;;;;;;;9.45;2.45;;;;;;;9.35;59.70;102170.34;6269480;28;20045;-72
2021/04/17 10:20:26;;;;;;;8.55;3.08;;;;;;;9.42;61.97;102159.72;6269379;28;20052;-76
2021/04/17 10:23:27;;;;;;;11.48;3.08;;;;;;;9.73;59.55;102157.16;6262274;28;20068;-71
2021/04/17 10:26:28;;;;;;;9.27;2.85;;;;;;;9.69;60.42;102145.00;6264441;28;20045;-72
2021/04/17 10:29:35;;;;;;;6.63;2.65;;;;;;;9.77;60.64;102143.06;6253567;28;20049;-71
2021/04/17 10:32:38;;;;;;;12.02;3.03;;;;;;;10.02;59.87;102140.59;6245524;28;20493;-71
2021/04/17 10:35:40;;;;;;;9.10;2.75;;;;;;;10.01;57.82;102131.00;6257674;28;20489;-71
2021/04/17 10:38:41;;;;;;;6.47;2.50;;;;;;;9.80;58.11;102137.69;6255357;28;20770;-72
2021/04/17 10:41:42;;;;;;;9.18;2.70;;;;;;;10.01;56.71;102134.47;6259325;28;20151;-72
2021/04/17 10:44:52;;;;;;;6.50;2.90;;;;;;;10.14;58.04;102124.47;6255325;28;20084;-72
2021/04/17 10:48:00;;;;;;;12.73;2.90;;;;;;;10.20;59.26;102119.03;6246410;28;20049;-74
2021/04/17 10:51:06;;;;;;;10.57;2.35;;;;;;;10.25;55.51;102119.78;6246527;28;20061;-74
2021/04/17 10:54:07;;;;;;;15.95;2.45;;;;;;;10.43;54.39;102125.41;6251506;28;20049;-74
2021/04/17 10:57:08;;;;;;;4.95;2.05;;;;;;;10.41;54.65;102117.56;6271020;28;20065;-74
2021/04/17 11:00:13;;;;;;;5.85;2.65;;;;;;;10.56;54.47;102117.09;6271014;28;20091;-75
2021/04/17 11:03:14;;;;;;;3.83;2.05;;;;;;;10.73;52.60;102108.66;6269057;28;20139;-73
2021/04/17 11:06:17;;;;;;;10.70;2.47;;;;;;;10.59;52.90;102109.13;6258060;28;20448;-74
2021/04/17 11:09:22;;;;;;;7.55;2.00;;;;;;;10.56;51.91;102106.56;6252318;28;20049;-72
2021/04/17 11:12:26;;;;;;;7.10;2.25;;;;;;;10.56;53.36;102113.59;6271210;28;20051;-73
2021/04/17 11:15:29;;;;;;;6.25;2.10;;;;;;;10.70;52.94;102108.75;6267441;28;20033;-74
2021/04/17 11:18:36;;;;;;;5.60;2.20;;;;;;;10.98;50.71;102113.13;6248782;28;20537;-73
2021/04/17 11:21:37;;;;;;;6.60;2.10;;;;;;;11.08;52.13;102111.91;6244207;28;20053;-78
2021/04/17 11:24:39;;;;;;;6.65;2.33;;;;;;;11.03;52.43;102104.16;6244082;28;20056;-74
2021/04/17 11:27:41;;;;;;;8.40;2.95;;;;;;;11.09;50.13;102101.34;6244042;28;20083;-73
2021/04/17 11:30:42;;;;;;;7.50;2.30;;;;;;;11.24;50.18;102089.44;6245922;28;20505;-73
2021/04/17 11:33:45;;;;;;;5.88;2.35;;;;;;;10.89;52.56;102098.50;6249895;28;20111;-74
2021/04/17 11:36:46;;;;;;;5.22;2.33;;;;;;;11.24;51.23;102094.69;6250380;28;20049;-74
2021/04/17 11:39:47;;;;;;;10.13;2.28;;;;;;;11.61;52.65;102094.25;6250858;28;20050;-74
2021/04/17 11:42:48;;;;;;;7.07;2.20;;;;;;;11.79;50.57;102091.88;6250369;28;20571;-74
2021/04/17 11:45:49;;;;;;;7.25;2.38;;;;;;;12.40;49.18;102079.03;6250583;28;20072;-74
2021/04/17 11:48:51;;;;;;;7.05;2.33;;;;;;;12.57;47.54;102078.34;6250691;28;20056;-72
2021/04/17 11:51:53;;;;;;;6.88;2.30;;;;;;;12.83;47.22;102070.22;6250527;28;20057;-72
2021/04/17 11:54:54;;;;;;;7.13;2.72;;;;;;;12.71;45.67;102068.06;6250155;28;20060;-74
2021/04/17 11:57:55;;;;;;;7.40;3.03;;;;;;;12.57;48.83;102073.91;6249959;28;20056;-73
2021/04/17 12:00:56;;;;;;;10.02;2.65;;;;;;;13.08;47.29;102071.81;6250257;28;20049;-74
2021/04/17 12:03:57;;;;;;;15.55;2.60;;;;;;;13.34;45.34;102076.00;6250149;28;20076;-73
2021/04/17 12:06:59;;;;;;;6.68;1.83;;;;;;;13.67;47.34;102074.53;6249851;28;20049;-74
2021/04/17 12:10:00;;;;;;;6.38;2.55;;;;;;;13.70;45.43;102076.16;6249804;28;20108;-72
2021/04/17 12:13:01;;;;;;;6.55;2.55;;;;;;;13.54;44.55;102073.38;6249730;28;20521;-72
2021/04/17 12:16:02;;;;;;;5.90;2.10;;;;;;;13.03;43.88;102074.66;6249623;28;20437;-75
2021/04/17 12:19:03;;;;;;;5.53;1.95;;;;;;;12.82;43.88;102065.03;6249654;28;20045;-74
2021/04/17 12:22:05;;;;;;;5.18;2.40;;;;;;;12.27;44.34;102072.53;6249478;28;20128;-72
2021/04/17 12:25:07;;;;;;;5.43;2.00;;;;;;;12.41;44.46;102073.69;6249246;28;20053;-72
2021/04/17 12:28:08;;;;;;;5.05;2.35;;;;;;;12.74;45.61;102067.09;6249260;28;20057;-72
2021/04/17 12:31:09;;;;;;;6.28;2.20;;;;;;;13.08;44.72;102062.16;6249134;28;20049;-72
2021/04/17 12:34:10;;;;;;;10.93;2.17;;;;;;;13.62;41.56;102060.66;6248959;28;20053;-75
2021/04/17 12:37:12;;;;;;;6.18;2.05;;;;;;;13.83;42.08;102058.84;6248832;28;20529;-72
2021/04/17 12:40:13;;;;;;;8.13;2.13;;;;;;;14.27;40.82;102055.91;6248993;28;20406;-73
2021/04/17 12:43:14;;;;;;;4.85;2.25;;;;;;;14.59;40.92;102059.66;6248651;28;20053;-72
2021/04/17 12:46:15;;;;;;;10.77;2.72;;;;;;;14.21;43.27;102051.75;6248755;28;20129;-72
2021/04/17 12:49:17;;;;;;;6.60;2.13;;;;;;;14.17;42.27;102055.47;6248692;28;20050;-72
2021/04/17 12:52:18;;;;;;;47.50;3.33;;;;;;;14.38;42.74;102052.72;6248986;28;20052;-72
2021/04/17 12:55:19;;;;;;;7.97;2.40;;;;;;;14.07;40.79;102045.41;6248586;28;20042;-72
2021/04/17 12:58:21;;;;;;;8.88;2.63;;;;;;;13.92;41.75;102045.19;6248462;28;20516;-72
2021/04/17 13:01:21;;;;;;;6.28;2.50;;;;;;;13.53;41.66;102047.84;6248792;28;20050;-72
2021/04/17 13:04:23;;;;;;;6.72;2.50;;;;;;;13.64;42.08;102050.03;6246395;28;20137;-72
2021/04/17 13:07:25;;;;;;;5.82;2.50;;;;;;;13.49;44.50;102048.06;6247887;28;20046;-72
2021/04/17 13:10:26;;;;;;;7.15;2.42;;;;;;;13.49;41.76;102040.13;6247663;28;20080;-72
2021/04/17 13:13:27;;;;;;;7.78;2.80;;;;;;;13.33;42.69;102042.63;6248283;28;20053;-72
2021/04/17 13:16:27;;;;;;;4.95;2.70;;;;;;;13.25;42.66;102048.22;6248051;28;20076;-72
2021/04/17 13:19:28;;;;;;;6.40;2.55;;;;;;;13.23;43.28;102050.09;6248356;28;20057;-72
2021/04/17 13:22:30;;;;;;;3.50;2.08;;;;;;;13.36;41.14;102039.84;6248262;28;20141;-72
2021/04/17 13:25:31;;;;;;;5.32;2.70;;;;;;;13.14;41.49;102035.47;6247712;28;20128;-72
2021/04/17 13:28:32;;;;;;;7.22;2.75;;;;;;;13.35;41.66;102035.47;6247959;28;20053;-72
2021/04/17 13:31:33;;;;;;;6.05;3.03;;;;;;;13.35;43.25;102023.16;6247817;28;20054;-72
2021/04/17 13:34:34;;;;;;;8.98;2.60;;;;;;;13.42;43.74;102023.72;6247578;28;20136;-72
2021/04/17 13:37:35;;;;;;;9.15;2.55;;;;;;;13.35;42.07;102027.56;6247805;28;20092;-73
2021/04/17 13:40:36;;;;;;;7.00;2.72;;;;;;;13.50;42.42;102028.69;6247781;28;20512;-72
2021/04/17 13:43:38;;;;;;;7.65;2.80;;;;;;;13.38;44.29;102027.44;6247357;28;20058;-72
2021/04/17 13:46:40;;;;;;;10.85;2.65;;;;;;;13.68;42.86;102022.56;6247400;28;20042;-72
2021/04/17 13:49:41;;;;;;;10.10;3.15;;;;;;;13.63;41.25;102025.41;6247454;28;20144;-72
2021/04/17 13:52:42;;;;;;;6.82;2.50;;;;;;;13.43;40.95;102015.72;6247627;28;20064;-72
2021/04/17 13:55:43;;;;;;;7.90;2.70;;;;;;;13.50;40.62;102015.47;6246628;28;20046;-72
2021/04/17 13:58:44;;;;;;;6.70;2.70;;;;;;;13.84;39.32;102020.06;6247537;28;20068;-72
2021/04/17 14:01:45;;;;;;;5.95;3.40;;;;;;;13.65;40.32;102010.34;6247283;28;20520;-72
2021/04/17 14:04:46;;;;;;;5.78;2.67;;;;;;;13.62;39.60;102022.81;6246817;28;20064;-72
2021/04/17 14:07:48;;;;;;;9.02;2.92;;;;;;;13.28;45.00;102011.16;6247006;28;20163;-72
2021/04/17 14:10:49;;;;;;;5.85;3.15;;;;;;;13.47;41.58;102005.88;6246958;28;20045;-72
2021/04/17 14:13:50;;;;;;;11.88;4.03;;;;;;;13.87;45.06;102004.06;6246804;28;20091;-72